createdAt,value
2017-09-28T00:01:45.919Z,14.90
2017-09-28T00:04:16.599Z,14.90
2017-09-28T00:06:47.874Z,14.80
2017-09-28T00:09:19.600Z,14.70
2017-09-28T00:11:50.505Z,14.70
2017-09-28T00:14:21.629Z,14.70
2017-09-28T00:16:53.539Z,14.70
2017-09-28T00:19:24.787Z,14.70
2017-09-28T00:21:55.729Z,14.80
2017-09-28T00:24:26.797Z,14.80
2017-09-28T00:26:57.978Z,14.90
2017-09-28T00:29:29.710Z,14.90
2017-09-28T00:32:00.810Z,14.90
2017-09-28T00:34:33.225Z,14.70
2017-09-28T00:37:05.468Z,14.60
2017-09-28T00:39:37.284Z,14.50
2017-09-28T00:42:08.882Z,14.50
2017-09-28T00:44:39.988Z,14.50
2017-09-28T00:47:10.849Z,14.40
2017-09-28T00:49:41.567Z,14.30
2017-09-28T00:52:12.651Z,14.30
2017-09-28T00:54:44.707Z,14.40
2017-09-28T00:57:15.634Z,14.50
2017-09-28T00:59:46.707Z,14.40
2017-09-28T01:02:17.376Z,14.50
2017-09-28T01:04:48.323Z,14.50
2017-09-28T01:07:19.726Z,14.50
2017-09-28T01:09:50.236Z,14.40
2017-09-28T01:12:21.282Z,14.40
2017-09-28T01:14:52.832Z,14.30
2017-09-28T01:17:24.043Z,14.20
2017-09-28T01:19:55.242Z,14.30
2017-09-28T01:22:26.114Z,14.20
2017-09-28T01:24:57.934Z,14.30
2017-09-28T01:27:28.920Z,14.20
2017-09-28T01:29:59.701Z,14.40
2017-09-28T01:32:30.544Z,14.40
2017-09-28T01:35:02.022Z,14.30
2017-09-28T01:37:32.782Z,14.30
2017-09-28T01:40:03.884Z,14.20
2017-09-28T01:42:35.437Z,14.10
2017-09-28T01:45:06.009Z,14.00
2017-09-28T01:47:37.708Z,13.90
2017-09-28T01:50:08.900Z,13.90
2017-09-28T01:52:39.809Z,14.00
2017-09-28T01:55:10.940Z,14.00
2017-09-28T01:57:42.243Z,14.00
2017-09-28T02:00:13.458Z,14.10
2017-09-28T02:02:44.408Z,14.10
2017-09-28T02:05:15.320Z,14.20
2017-09-28T02:07:46.300Z,14.20
2017-09-28T02:10:16.784Z,14.20
2017-09-28T02:12:47.762Z,14.20
2017-09-28T02:15:19.421Z,14.10
2017-09-28T02:17:49.728Z,14.10
2017-09-28T02:20:20.779Z,14.10
2017-09-28T02:22:52.003Z,14.10
2017-09-28T02:25:23.175Z,14.00
2017-09-28T02:27:54.059Z,14.00
2017-09-28T02:30:25.806Z,14.20
2017-09-28T02:32:57.011Z,14.10
2017-09-28T02:35:28.294Z,14.30
2017-09-28T02:37:59.647Z,14.20
2017-09-28T02:40:30.529Z,14.10
2017-09-28T02:43:01.590Z,14.10
2017-09-28T02:45:32.996Z,14.00
2017-09-28T02:48:03.901Z,14.00
2017-09-28T02:50:34.734Z,14.10
2017-09-28T02:53:06.444Z,14.10
2017-09-28T02:55:37.527Z,14.10
2017-09-28T02:58:09.431Z,14.20
2017-09-28T03:00:40.466Z,14.20
2017-09-28T03:03:11.597Z,14.30
2017-09-28T03:05:42.447Z,14.30
2017-09-28T03:08:13.403Z,14.30
2017-09-28T03:10:44.135Z,14.30
2017-09-28T03:13:14.928Z,14.20
2017-09-28T03:15:46.543Z,14.30
2017-09-28T03:18:17.415Z,14.40
2017-09-28T03:20:49.065Z,14.40
2017-09-28T03:23:20.665Z,14.40
2017-09-28T03:25:51.236Z,14.40
2017-09-28T03:28:22.312Z,14.30
2017-09-28T03:30:53.406Z,14.20
2017-09-28T03:33:23.865Z,14.20
2017-09-28T03:35:56.918Z,14.20
2017-09-28T03:38:27.914Z,14.20
2017-09-28T03:40:58.889Z,14.20
2017-09-28T03:43:29.690Z,14.30
2017-09-28T03:46:00.708Z,14.20
2017-09-28T03:48:31.349Z,14.30
2017-09-28T03:51:02.709Z,14.20
2017-09-28T03:53:33.577Z,14.20
2017-09-28T03:56:04.980Z,14.20
2017-09-28T03:58:35.951Z,14.20
2017-09-28T04:01:06.487Z,14.30
2017-09-28T04:03:37.437Z,14.40
2017-09-28T04:06:08.207Z,14.40
2017-09-28T04:08:39.198Z,14.30
2017-09-28T04:11:10.375Z,14.30
2017-09-28T04:13:41.865Z,14.20
2017-09-28T04:16:12.828Z,14.20
2017-09-28T04:18:43.970Z,14.20
2017-09-28T04:21:15.000Z,14.30
2017-09-28T04:23:45.867Z,14.30
2017-09-28T04:26:17.682Z,14.40
2017-09-28T04:28:48.887Z,14.40
2017-09-28T04:31:19.841Z,14.30
2017-09-28T04:33:51.728Z,14.40
2017-09-28T04:36:22.944Z,14.40
2017-09-28T04:38:54.559Z,14.30
2017-09-28T04:41:25.345Z,14.30
2017-09-28T04:43:56.495Z,14.40
2017-09-28T04:46:28.145Z,14.50
2017-09-28T04:48:59.528Z,14.50
2017-09-28T04:51:30.221Z,14.60
2017-09-28T04:54:01.956Z,14.50
2017-09-28T04:56:32.827Z,14.50
2017-09-28T04:59:03.923Z,14.30
2017-09-28T05:01:35.962Z,14.20
2017-09-28T05:04:06.932Z,14.20
2017-09-28T05:06:37.916Z,14.20
2017-09-28T05:09:09.395Z,14.20
2017-09-28T05:11:40.797Z,14.20
2017-09-28T05:14:12.480Z,14.30
2017-09-28T05:16:44.215Z,14.40
2017-09-28T05:19:14.885Z,14.40
2017-09-28T05:21:46.148Z,14.30
2017-09-28T05:24:17.091Z,14.30
2017-09-28T05:26:48.041Z,14.40
2017-09-28T05:29:20.145Z,14.40
2017-09-28T05:31:51.922Z,14.40
2017-09-28T05:34:24.025Z,14.50
2017-09-28T05:36:55.611Z,14.50
2017-09-28T05:39:27.183Z,14.50
2017-09-28T05:41:57.968Z,14.50
2017-09-28T05:44:28.716Z,14.50
2017-09-28T05:47:00.726Z,14.50
2017-09-28T05:49:32.248Z,14.50
2017-09-28T05:52:03.902Z,14.50
2017-09-28T05:54:34.434Z,14.50
2017-09-28T05:57:05.967Z,14.50
2017-09-28T05:59:37.520Z,14.50
2017-09-28T06:02:08.646Z,14.50
2017-09-28T06:04:41.078Z,14.60
2017-09-28T06:07:12.258Z,14.60
2017-09-28T06:09:44.187Z,14.60
2017-09-28T06:12:15.998Z,14.60
2017-09-28T06:14:47.690Z,14.70
2017-09-28T06:17:18.787Z,14.70
2017-09-28T06:19:51.237Z,14.70
2017-09-28T06:22:22.502Z,14.70
2017-09-28T06:24:54.750Z,14.80
2017-09-28T06:27:25.569Z,14.80
2017-09-28T06:29:56.670Z,14.70
2017-09-28T06:32:28.510Z,14.70
2017-09-28T06:34:59.652Z,14.70
2017-09-28T06:37:30.456Z,14.70
2017-09-28T06:40:01.556Z,14.70
2017-09-28T06:42:32.274Z,14.70
2017-09-28T06:45:03.391Z,14.70
2017-09-28T06:47:34.841Z,14.70
2017-09-28T06:50:07.447Z,14.70
2017-09-28T06:52:39.291Z,14.60
2017-09-28T06:55:11.556Z,14.70
2017-09-28T06:57:43.742Z,14.70
2017-09-28T07:00:15.323Z,14.70
2017-09-28T07:02:46.870Z,14.70
2017-09-28T07:05:19.249Z,14.40
2017-09-28T07:07:51.435Z,14.40
2017-09-28T07:10:23.188Z,14.40
2017-09-28T07:12:54.814Z,14.40
2017-09-28T07:15:26.264Z,14.40
2017-09-28T07:17:58.774Z,14.30
2017-09-28T07:20:29.798Z,14.30
2017-09-28T07:23:01.821Z,14.30
2017-09-28T07:25:33.364Z,14.30
2017-09-28T07:28:05.538Z,14.50
2017-09-28T07:30:37.618Z,14.40
2017-09-28T07:33:08.746Z,14.50
2017-09-28T07:35:40.054Z,14.50
2017-09-28T07:38:11.443Z,14.50
2017-09-28T07:40:43.895Z,14.50
2017-09-28T07:43:15.716Z,14.70
2017-09-28T07:45:47.933Z,14.80
2017-09-28T07:48:19.054Z,14.80
2017-09-28T07:50:50.022Z,14.80
2017-09-28T07:53:20.951Z,15.00
2017-09-28T07:55:52.022Z,15.00
2017-09-28T07:58:23.646Z,15.20
2017-09-28T08:00:55.406Z,15.20
2017-09-28T08:03:26.347Z,15.20
2017-09-28T08:05:58.325Z,15.30
2017-09-28T08:08:29.234Z,15.30
2017-09-28T08:11:02.050Z,15.50
2017-09-28T08:13:33.177Z,15.40
2017-09-28T08:16:04.732Z,15.30
2017-09-28T08:18:36.263Z,15.20
2017-09-28T08:21:07.896Z,15.20
2017-09-28T08:23:39.120Z,15.30
2017-09-28T08:26:11.291Z,15.20
2017-09-28T08:28:43.226Z,15.40
2017-09-28T08:31:13.953Z,15.30
2017-09-28T08:33:45.097Z,15.50
2017-09-28T08:36:16.176Z,15.70
2017-09-28T08:38:48.280Z,15.60
2017-09-28T08:41:20.360Z,15.60
2017-09-28T08:43:52.680Z,15.70
2017-09-28T08:46:25.028Z,15.70
2017-09-28T08:48:58.488Z,15.90
2017-09-28T08:51:30.223Z,16.10
2017-09-28T08:54:01.187Z,16.20
2017-09-28T08:56:32.676Z,15.90
2017-09-28T08:59:05.065Z,16.10
2017-09-28T09:01:37.706Z,16.10
2017-09-28T09:04:09.847Z,16.70
2017-09-28T09:06:42.002Z,16.60
2017-09-28T09:09:13.246Z,16.60
2017-09-28T09:11:45.682Z,16.50
2017-09-28T09:14:17.345Z,16.90
2017-09-28T09:16:50.082Z,17.10
2017-09-28T09:19:23.021Z,17.00
2017-09-28T09:21:55.367Z,17.20
2017-09-28T09:24:28.004Z,17.20
2017-09-28T09:26:59.585Z,17.10
2017-09-28T09:29:33.818Z,17.60
2017-09-28T09:32:08.483Z,17.60
2017-09-28T09:34:51.093Z,17.60
2017-09-28T09:37:29.290Z,17.60
2017-09-28T09:40:06.631Z,17.40
2017-09-28T09:42:49.614Z,17.50
2017-09-28T09:45:21.345Z,17.40
2017-09-28T09:47:55.969Z,17.60
2017-09-28T09:50:30.218Z,17.70
2017-09-28T09:53:02.097Z,17.80
2017-09-28T09:55:35.203Z,17.80
2017-09-28T09:58:07.463Z,17.70
2017-09-28T10:00:41.487Z,17.50
2017-09-28T10:03:17.066Z,17.50
2017-09-28T10:05:53.051Z,17.50
2017-09-28T10:08:43.965Z,17.60
2017-09-28T10:11:45.598Z,17.60
2017-09-28T10:14:30.559Z,17.70
2017-09-28T10:17:03.055Z,17.50
2017-09-28T10:19:35.495Z,17.30
2017-09-28T10:22:08.298Z,17.30
2017-09-28T10:24:44.071Z,17.30
2017-09-28T10:27:18.848Z,17.30
2017-09-28T10:29:53.246Z,17.40
2017-09-28T10:32:28.307Z,17.50
2017-09-28T10:35:01.670Z,17.50
2017-09-28T10:37:34.742Z,17.80
2017-09-28T10:40:06.827Z,17.70
2017-09-28T10:42:40.336Z,17.70
2017-09-28T10:45:15.337Z,18.10
2017-09-28T10:47:49.535Z,18.10
2017-09-28T10:50:31.858Z,18.40
2017-09-28T10:53:05.593Z,18.60
2017-09-28T10:55:55.420Z,18.10
2017-09-28T10:58:38.060Z,18.10
2017-09-28T11:01:12.808Z,18.30
2017-09-28T11:03:50.675Z,18.20
2017-09-28T11:06:28.986Z,18.30
2017-09-28T11:09:02.505Z,18.40
2017-09-28T11:11:48.376Z,18.60
2017-09-28T11:14:38.207Z,18.60
2017-09-28T11:17:25.978Z,18.60
2017-09-28T11:20:03.945Z,19.00
2017-09-28T11:22:39.561Z,18.90
2017-09-28T11:25:29.688Z,18.80
2017-09-28T11:28:03.722Z,18.80
2017-09-28T11:30:41.299Z,18.70
2017-09-28T11:33:19.304Z,19.00
2017-09-28T11:35:53.749Z,19.30
2017-09-28T11:38:27.970Z,19.50
2017-09-28T11:41:05.775Z,19.30
2017-09-28T11:43:39.842Z,19.30
2017-09-28T11:46:14.207Z,19.70
2017-09-28T11:48:48.094Z,19.70
2017-09-28T11:51:21.750Z,19.70
2017-09-28T11:53:55.948Z,19.50
2017-09-28T11:56:34.261Z,19.60
2017-09-28T11:59:12.551Z,19.70
2017-09-28T12:01:46.901Z,19.70
2017-09-28T12:04:29.644Z,20.20
2017-09-28T12:07:03.404Z,20.20
2017-09-28T12:09:49.467Z,20.40
2017-09-28T12:12:28.019Z,20.40
2017-09-28T12:15:10.948Z,21.70
2017-09-28T12:17:52.920Z,22.60
2017-09-28T12:20:28.096Z,22.60
2017-09-28T12:23:03.487Z,22.90
2017-09-28T12:25:38.083Z,22.70
2017-09-28T12:28:11.103Z,22.80
2017-09-28T12:30:44.222Z,23.00
2017-09-28T12:33:18.115Z,22.10
2017-09-28T12:35:49.603Z,22.60
2017-09-28T12:38:23.054Z,22.90
2017-09-28T12:40:56.581Z,23.80
2017-09-28T12:43:30.868Z,24.90
2017-09-28T12:46:02.869Z,24.90
2017-09-28T12:48:34.923Z,25.00
2017-09-28T12:51:07.707Z,25.80
2017-09-28T12:53:40.550Z,25.60
2017-09-28T12:56:14.479Z,25.70
2017-09-28T12:58:46.457Z,25.60
2017-09-28T13:01:19.549Z,24.00
2017-09-28T13:03:51.124Z,23.90
2017-09-28T13:06:22.559Z,23.70
2017-09-28T13:08:56.903Z,24.00
2017-09-28T13:11:30.346Z,24.00
2017-09-28T13:14:02.279Z,24.80
2017-09-28T13:16:34.131Z,25.30
2017-09-28T13:19:05.934Z,25.80
2017-09-28T13:21:38.301Z,25.10
2017-09-28T13:24:10.329Z,25.00
2017-09-28T13:26:42.062Z,25.40
2017-09-28T13:29:13.668Z,24.60
2017-09-28T13:31:45.534Z,24.70
2017-09-28T13:34:17.577Z,24.60
2017-09-28T13:36:51.086Z,24.20
2017-09-28T13:39:23.228Z,24.50
2017-09-28T13:41:55.910Z,24.60
2017-09-28T13:44:29.365Z,25.30
2017-09-28T13:47:01.250Z,24.40
2017-09-28T13:49:32.772Z,23.40
2017-09-28T13:52:04.592Z,23.50
2017-09-28T13:54:36.887Z,24.90
2017-09-28T13:57:09.526Z,24.50
2017-09-28T13:59:40.690Z,24.50
2017-09-28T14:02:12.738Z,24.40
2017-09-28T14:04:45.128Z,25.10
2017-09-28T14:07:17.471Z,26.00
2017-09-28T14:09:50.432Z,25.90
2017-09-28T14:12:22.124Z,26.10
2017-09-28T14:14:53.572Z,25.20
2017-09-28T14:17:25.229Z,24.50
2017-09-28T14:19:57.607Z,24.30
2017-09-28T14:22:28.840Z,24.50
2017-09-28T14:25:00.849Z,23.20
2017-09-28T14:27:33.027Z,23.30
2017-09-28T14:30:05.347Z,22.90
2017-09-28T14:32:37.105Z,22.90
2017-09-28T14:35:08.738Z,23.00
2017-09-28T14:37:41.290Z,23.30
2017-09-28T14:40:14.364Z,23.00
2017-09-28T14:42:47.316Z,23.00
2017-09-28T14:45:19.872Z,23.00
2017-09-28T14:47:51.575Z,22.70
2017-09-28T14:50:23.447Z,22.40
2017-09-28T14:52:56.348Z,21.50
2017-09-28T14:55:28.125Z,21.50
2017-09-28T14:58:00.274Z,21.60
2017-09-28T15:00:34.382Z,21.50
2017-09-28T15:03:07.778Z,21.50
2017-09-28T15:05:40.339Z,21.50
2017-09-28T15:08:12.130Z,21.50
2017-09-28T15:10:43.771Z,21.40
2017-09-28T15:13:16.349Z,21.30
2017-09-28T15:15:48.593Z,21.30
2017-09-28T15:18:20.913Z,21.40
2017-09-28T15:20:52.688Z,21.40
2017-09-28T15:23:25.709Z,21.50
2017-09-28T15:25:58.019Z,21.40
2017-09-28T15:28:30.197Z,21.50
2017-09-28T15:31:01.794Z,21.50
2017-09-28T15:33:33.867Z,21.40
2017-09-28T15:36:06.032Z,21.40
2017-09-28T15:38:38.393Z,21.40
2017-09-28T15:41:13.937Z,21.50
2017-09-28T15:43:46.057Z,21.40
2017-09-28T15:46:18.197Z,21.50
2017-09-28T15:48:50.154Z,21.50
2017-09-28T15:51:22.133Z,21.50
2017-09-28T15:53:54.641Z,21.50
2017-09-28T15:56:25.619Z,21.50
2017-09-28T15:58:58.106Z,21.50
2017-09-28T16:01:30.502Z,21.50
2017-09-28T16:04:03.298Z,21.50
2017-09-28T16:06:35.134Z,21.50
2017-09-28T16:09:07.161Z,21.50
2017-09-28T16:11:38.332Z,21.50
2017-09-28T16:14:10.251Z,21.40
2017-09-28T16:16:41.653Z,21.40
2017-09-28T16:19:13.340Z,21.40
2017-09-28T16:21:45.081Z,21.20
2017-09-28T16:24:16.805Z,21.10
2017-09-28T16:26:49.235Z,21.10
2017-09-28T16:29:21.001Z,21.00
2017-09-28T16:31:53.147Z,21.10
2017-09-28T16:34:25.524Z,21.20
2017-09-28T16:36:57.432Z,21.20
2017-09-28T16:39:29.797Z,21.20
2017-09-28T16:42:02.730Z,21.20
2017-09-28T16:44:35.100Z,21.20
2017-09-28T16:47:07.467Z,21.20
2017-09-28T16:49:39.853Z,21.20
2017-09-28T16:52:12.035Z,21.20
2017-09-28T16:54:45.275Z,21.20
2017-09-28T16:57:17.946Z,21.10
2017-09-28T16:59:51.185Z,21.00
2017-09-28T17:02:22.894Z,21.00
2017-09-28T17:04:55.705Z,21.00
2017-09-28T17:07:27.167Z,21.00
2017-09-28T17:09:58.806Z,20.90
2017-09-28T17:12:29.703Z,20.90
2017-09-28T17:15:01.406Z,20.90
2017-09-28T17:17:33.244Z,20.80
2017-09-28T17:20:06.996Z,20.70
2017-09-28T17:22:38.655Z,20.70
2017-09-28T17:25:10.442Z,20.60
2017-09-28T17:27:42.791Z,20.60
2017-09-28T17:30:14.305Z,20.50
2017-09-28T17:32:45.796Z,20.50
2017-09-28T17:35:16.991Z,20.50
2017-09-28T17:37:48.824Z,20.40
2017-09-28T17:40:20.718Z,20.30
2017-09-28T17:42:52.423Z,20.30
2017-09-28T17:45:24.346Z,20.20
2017-09-28T17:47:58.145Z,20.10
2017-09-28T17:50:30.645Z,20.10
2017-09-28T17:53:02.832Z,20.00
2017-09-28T17:55:35.184Z,19.80
2017-09-28T17:58:06.538Z,19.80
2017-09-28T18:00:38.408Z,19.80
2017-09-28T18:03:09.582Z,19.70
2017-09-28T18:05:41.520Z,19.50
2017-09-28T18:08:13.284Z,19.50
2017-09-28T18:10:45.508Z,19.40
2017-09-28T18:13:18.561Z,19.30
2017-09-28T18:15:50.242Z,19.30
2017-09-28T18:18:21.841Z,19.20
2017-09-28T18:20:53.953Z,19.20
2017-09-28T18:23:25.381Z,19.20
2017-09-28T18:25:57.771Z,19.10
2017-09-28T18:28:30.095Z,19.10
2017-09-28T18:31:14.276Z,19.10
2017-09-28T18:33:46.763Z,19.10
2017-09-28T18:36:19.131Z,19.10
2017-09-28T18:38:50.402Z,19.10
2017-09-28T18:41:21.964Z,19.10
2017-09-28T18:43:53.381Z,19.10
2017-09-28T18:46:25.437Z,19.20
2017-09-28T18:48:57.043Z,19.10
2017-09-28T18:51:28.645Z,19.20
2017-09-28T18:53:59.914Z,19.20
2017-09-28T18:56:31.662Z,19.20
2017-09-28T18:59:02.836Z,19.20
2017-09-28T19:01:35.125Z,19.20
2017-09-28T19:04:06.743Z,19.20
2017-09-28T19:06:38.082Z,19.30
2017-09-28T19:09:10.026Z,19.30
2017-09-28T19:11:42.168Z,19.20
2017-09-28T19:14:13.923Z,19.20
2017-09-28T19:16:45.634Z,19.20
2017-09-28T19:19:17.107Z,19.20
2017-09-28T19:21:48.883Z,19.20
2017-09-28T19:24:20.480Z,19.10
2017-09-28T19:26:52.615Z,19.10
2017-09-28T19:29:25.225Z,19.10
2017-09-28T19:31:58.107Z,18.80
2017-09-28T19:34:30.192Z,18.70
2017-09-28T19:37:03.058Z,18.70
2017-09-28T19:39:35.179Z,18.70
2017-09-28T19:42:06.218Z,18.70
2017-09-28T19:44:38.286Z,18.70
2017-09-28T23:36:27.254Z,16.90
2017-09-28T23:38:58.294Z,16.90
2017-09-28T23:41:29.899Z,16.80
2017-09-28T23:44:01.183Z,16.80
2017-09-28T23:46:32.612Z,16.80
2017-09-28T23:49:04.011Z,16.80
2017-09-28T23:51:35.499Z,16.80
2017-09-28T23:54:06.195Z,16.80
2017-09-28T23:56:37.721Z,16.60
2017-09-28T23:59:08.765Z,16.60
